createdAt,value
2023-02-08T00:01:59.945Z,125.33
2023-02-08T00:04:23.641Z,125.03
2023-02-08T00:06:47.387Z,123.20
2023-02-08T00:09:11.180Z,127.17
2023-02-08T00:11:34.973Z,122.40
2023-02-08T00:13:58.700Z,128.20
2023-02-08T00:16:22.420Z,135.70
2023-02-08T00:18:47.711Z,130.13
2023-02-08T00:21:15.229Z,126.80
2023-02-08T00:23:39.076Z,121.67
2023-02-08T00:26:02.824Z,130.07
2023-02-08T00:28:26.595Z,135.57
2023-02-08T00:30:50.688Z,117.00
2023-02-08T00:33:14.670Z,131.17
2023-02-08T00:35:41.116Z,124.97
2023-02-08T00:38:05.112Z,127.40
2023-02-08T00:40:29.145Z,124.50
2023-02-08T00:42:54.204Z,126.33
2023-02-08T00:45:18.013Z,124.37
2023-02-08T00:47:41.738Z,133.67
2023-02-08T00:50:06.749Z,125.13
2023-02-08T00:52:34.067Z,129.33
2023-02-08T00:54:57.851Z,133.90
2023-02-08T00:57:21.606Z,123.37
2023-02-08T00:59:45.328Z,123.80
2023-02-08T01:02:10.215Z,121.13
2023-02-08T01:04:34.009Z,122.07
2023-02-08T01:06:57.672Z,126.13
2023-02-08T01:09:22.809Z,126.37
2023-02-08T01:11:46.549Z,128.20
2023-02-08T01:14:10.336Z,131.23
2023-02-08T01:16:35.590Z,115.87
2023-02-08T01:19:01.059Z,128.03
2023-02-08T01:21:27.127Z,125.87
2023-02-08T01:23:51.904Z,134.90
2023-02-08T01:26:19.282Z,126.97
2023-02-08T01:28:44.019Z,125.13
2023-02-08T01:31:09.389Z,126.40
2023-02-08T01:33:33.098Z,126.33
2023-02-08T01:35:57.102Z,124.43
2023-02-08T01:38:21.364Z,132.57
2023-02-08T01:40:45.200Z,119.13
2023-02-08T01:43:22.654Z,124.20
2023-02-08T01:45:46.386Z,125.07
2023-02-08T01:48:15.295Z,115.57
2023-02-08T01:50:46.458Z,123.53
2023-02-08T01:53:10.485Z,111.00
2023-02-08T01:55:40.037Z,108.90
2023-02-08T01:58:10.505Z,110.50
2023-02-08T02:00:34.573Z,116.20
2023-02-08T02:03:00.218Z,114.20
2023-02-08T02:05:27.509Z,107.40
2023-02-08T02:07:52.743Z,107.43
2023-02-08T02:10:21.968Z,109.20
2023-02-08T02:12:47.052Z,108.50
2023-02-08T02:15:12.845Z,116.67
2023-02-08T02:17:37.128Z,112.97
2023-02-08T02:20:09.952Z,108.83
2023-02-08T02:23:31.126Z,115.87
2023-02-08T02:26:45.191Z,112.23
2023-02-08T02:30:06.901Z,115.73
2023-02-08T02:32:56.972Z,117.90
2023-02-08T02:35:28.885Z,116.20
2023-02-08T02:38:02.294Z,115.20
2023-02-08T02:40:37.572Z,115.10
2023-02-08T02:43:29.010Z,116.33
2023-02-08T02:46:01.927Z,120.03
2023-02-08T02:48:34.116Z,114.13
2023-02-08T02:51:03.552Z,116.03
2023-02-08T02:53:35.779Z,114.23
2023-02-08T02:56:06.746Z,114.23
2023-02-08T02:58:32.706Z,114.73
2023-02-08T03:00:58.950Z,105.63
2023-02-08T03:03:28.539Z,112.37
2023-02-08T03:05:54.432Z,109.27
2023-02-08T03:08:45.275Z,104.43
2023-02-08T03:11:20.131Z,107.70
2023-02-08T03:14:05.475Z,105.80
2023-02-08T03:16:44.048Z,108.50
2023-02-08T03:19:15.359Z,110.03
2023-02-08T03:21:46.039Z,108.00
2023-02-08T03:24:24.652Z,109.63
2023-02-08T03:26:56.336Z,107.63
2023-02-08T03:29:31.588Z,108.43
2023-02-08T03:32:00.183Z,108.40
2023-02-08T03:34:31.468Z,104.03
2023-02-08T03:36:59.816Z,101.43
2023-02-08T03:39:27.620Z,100.27
2023-02-08T03:41:56.229Z,94.40
2023-02-08T03:44:24.718Z,104.87
2023-02-08T03:46:56.069Z,103.33
2023-02-08T03:49:25.441Z,101.77
2023-02-08T03:51:49.759Z,103.33
2023-02-08T03:54:19.163Z,106.00
2023-02-08T03:56:48.510Z,119.97
2023-02-08T03:59:17.590Z,124.20
2023-02-08T04:01:47.746Z,116.07
2023-02-08T04:04:12.670Z,118.97
2023-02-08T04:06:37.748Z,111.10
2023-02-08T04:09:01.460Z,111.13
2023-02-08T04:11:25.275Z,109.87
2023-02-08T04:13:48.975Z,105.80
2023-02-08T04:16:13.821Z,109.20
2023-02-08T04:18:37.586Z,92.57
2023-02-08T04:21:01.282Z,96.97
2023-02-08T04:23:26.445Z,94.73
2023-02-08T04:25:50.147Z,91.23
2023-02-08T04:28:14.227Z,95.90
2023-02-08T04:30:38.050Z,90.77
2023-02-08T04:33:01.806Z,93.67
2023-02-08T04:35:25.436Z,89.53
2023-02-08T04:37:49.251Z,88.60
2023-02-08T04:40:14.823Z,89.27
2023-02-08T04:42:38.542Z,88.67
2023-02-08T04:45:02.240Z,87.30
2023-02-08T04:47:26.084Z,90.17
2023-02-08T04:49:49.729Z,91.57
2023-02-08T04:52:13.445Z,88.20
2023-02-08T04:54:39.945Z,83.93
2023-02-08T04:57:06.039Z,86.87
2023-02-08T04:59:30.110Z,86.97
2023-02-08T05:01:53.889Z,87.20
2023-02-08T05:04:17.572Z,80.00
2023-02-08T05:06:41.343Z,83.67
2023-02-08T05:09:08.368Z,99.00
2023-02-08T05:11:32.101Z,82.93
2023-02-08T05:13:57.196Z,88.17
2023-02-08T05:16:21.255Z,75.87
2023-02-08T05:18:45.277Z,87.87
2023-02-08T05:21:08.976Z,85.43
2023-02-08T05:23:33.361Z,87.30
2023-02-08T05:25:57.120Z,87.03
2023-02-08T05:28:21.541Z,75.33
2023-02-08T05:30:47.218Z,84.47
2023-02-08T05:33:10.924Z,90.40
2023-02-08T05:35:34.649Z,83.37
2023-02-08T05:37:58.338Z,87.37
2023-02-08T05:40:22.174Z,84.10
2023-02-08T05:42:45.885Z,88.87
2023-02-08T05:45:10.428Z,86.43
2023-02-08T05:47:35.454Z,93.57
2023-02-08T05:49:59.159Z,86.50
2023-02-08T05:52:22.828Z,88.03
2023-02-08T05:54:46.505Z,86.37
2023-02-08T05:57:10.166Z,84.90
2023-02-08T05:59:33.906Z,84.27
2023-02-08T06:01:57.582Z,80.93
2023-02-08T06:04:22.952Z,87.80
2023-02-08T06:06:46.587Z,81.67
2023-02-08T06:09:10.470Z,84.13
2023-02-08T06:11:34.246Z,85.60
2023-02-08T06:13:57.987Z,91.47
2023-02-08T06:16:21.692Z,81.23
2023-02-08T06:18:46.823Z,81.47
2023-02-08T06:21:12.492Z,78.57
2023-02-08T06:23:36.244Z,79.60
2023-02-08T06:26:00.461Z,77.97
2023-02-08T06:28:24.331Z,82.17
2023-02-08T06:30:50.188Z,81.37
2023-02-08T06:33:15.827Z,81.47
2023-02-08T06:35:39.645Z,81.70
2023-02-08T06:38:04.800Z,75.80
2023-02-08T06:40:28.666Z,86.20
2023-02-08T06:42:52.380Z,86.50
2023-02-08T06:45:16.244Z,81.17
2023-02-08T06:47:39.941Z,82.70
2023-02-08T06:50:03.894Z,83.80
2023-02-08T06:52:27.749Z,87.43
2023-02-08T06:54:53.021Z,76.07
2023-02-08T06:57:16.790Z,83.20
2023-02-08T06:59:40.536Z,78.83
2023-02-08T07:02:05.110Z,79.10
2023-02-08T07:04:28.833Z,77.40
2023-02-08T07:06:52.554Z,76.10
2023-02-08T07:09:16.364Z,85.37
2023-02-08T07:11:41.543Z,81.17
2023-02-08T07:14:05.442Z,86.67
2023-02-08T07:16:29.326Z,81.30
2023-02-08T07:18:53.169Z,78.13
2023-02-08T07:21:17.057Z,75.40
2023-02-08T07:23:41.305Z,83.83
2023-02-08T07:26:08.436Z,82.63
2023-02-08T07:28:33.867Z,79.17
2023-02-08T07:30:58.275Z,82.63
2023-02-08T07:33:22.676Z,81.47
2023-02-08T07:35:46.566Z,76.87
2023-02-08T07:38:10.252Z,78.50
2023-02-08T07:40:34.027Z,85.73
2023-02-08T07:42:57.852Z,84.63
2023-02-08T07:45:34.971Z,77.20
2023-02-08T07:47:58.988Z,79.40
2023-02-08T07:50:22.704Z,77.87
2023-02-08T07:52:47.591Z,81.77
2023-02-08T07:55:11.838Z,83.77
2023-02-08T07:57:35.526Z,76.17
2023-02-08T07:59:59.201Z,79.30
2023-02-08T08:02:24.321Z,78.20
2023-02-08T08:04:47.983Z,70.10
2023-02-08T08:07:11.741Z,74.93
2023-02-08T08:09:35.466Z,72.00
2023-02-08T08:11:59.191Z,74.67
2023-02-08T08:14:23.182Z,69.47
2023-02-08T08:16:46.901Z,71.13
2023-02-08T08:19:12.015Z,60.57
2023-02-08T08:21:35.714Z,73.23
2023-02-08T08:24:02.353Z,73.63
2023-02-08T08:26:26.082Z,70.03
2023-02-08T08:28:50.178Z,69.67
2023-02-08T08:31:16.041Z,66.77
2023-02-08T08:33:39.863Z,59.83
2023-02-08T08:36:05.233Z,62.03
2023-02-08T08:38:28.923Z,63.33
2023-02-08T08:40:52.626Z,62.07
2023-02-08T08:43:16.482Z,61.10
2023-02-08T08:45:40.192Z,70.00
2023-02-08T08:48:05.358Z,64.73
2023-02-08T08:50:29.113Z,58.93
2023-02-08T08:52:54.118Z,61.40
2023-02-08T08:55:18.004Z,56.60
2023-02-08T08:57:41.698Z,66.23
2023-02-08T09:00:06.176Z,64.90
2023-02-08T09:02:29.778Z,63.70
2023-02-08T09:04:53.454Z,61.40
2023-02-08T09:07:17.225Z,60.53
2023-02-08T09:09:42.413Z,64.43
2023-02-08T09:12:06.753Z,60.23
2023-02-08T09:14:30.505Z,55.33
2023-02-08T09:16:54.519Z,58.53
2023-02-08T09:19:18.342Z,68.83
2023-02-08T09:21:43.069Z,65.00
2023-02-08T09:24:07.401Z,60.23
2023-02-08T09:26:32.535Z,52.17
2023-02-08T09:28:56.812Z,62.83
2023-02-08T09:31:25.600Z,60.30
2023-02-08T09:33:49.726Z,63.27
2023-02-08T09:36:13.826Z,63.00
2023-02-08T09:38:38.324Z,60.90
2023-02-08T09:41:15.976Z,53.67
2023-02-08T09:43:49.262Z,64.33
2023-02-08T09:46:19.059Z,58.33
2023-02-08T09:48:43.064Z,61.53
2023-02-08T09:51:23.870Z,60.27
2023-02-08T09:53:53.498Z,58.27
2023-02-08T09:56:21.097Z,55.37
2023-02-08T09:58:49.649Z,59.77
2023-02-08T10:01:21.550Z,57.27
2023-02-08T10:03:47.357Z,60.70
2023-02-08T10:06:14.889Z,43.20
2023-02-08T10:08:39.826Z,60.43
2023-02-08T10:11:21.342Z,59.37
2023-02-08T10:14:05.624Z,61.50
2023-02-08T10:16:54.263Z,56.87
2023-02-08T10:19:39.172Z,62.80
2023-02-08T10:22:24.160Z,53.00
2023-02-08T10:25:11.630Z,54.65
2023-02-08T10:27:50.125Z,57.63
2023-02-08T10:30:26.111Z,55.53
2023-02-08T10:33:01.739Z,56.27
2023-02-08T10:35:37.011Z,56.67
2023-02-08T10:38:00.909Z,58.00
2023-02-08T10:40:32.784Z,58.20
2023-02-08T10:43:10.966Z,56.92
2023-02-08T10:45:44.853Z,50.43
2023-02-08T10:48:20.056Z,60.40
2023-02-08T10:50:47.557Z,57.17
2023-02-08T10:53:16.962Z,53.43
2023-02-08T10:55:44.518Z,57.87
2023-02-08T10:58:08.938Z,54.60
2023-02-08T11:00:38.752Z,55.67
2023-02-08T11:03:15.702Z,50.13
2023-02-08T11:05:41.259Z,58.60
2023-02-08T11:08:10.471Z,53.47
2023-02-08T11:10:34.869Z,61.50
2023-02-08T11:13:00.777Z,59.00
2023-02-08T11:15:27.477Z,56.80
2023-02-08T11:17:59.111Z,51.73
2023-02-08T11:20:29.152Z,54.77
2023-02-08T11:22:52.924Z,58.63
2023-02-08T11:25:36.274Z,56.57
2023-02-08T11:28:01.044Z,53.20
2023-02-08T11:30:26.081Z,59.83
2023-02-08T11:33:08.152Z,53.23
2023-02-08T11:35:33.910Z,52.73
2023-02-08T11:38:00.401Z,60.40
2023-02-08T11:40:29.796Z,58.20
2023-02-08T11:42:54.036Z,61.40
2023-02-08T11:45:25.218Z,52.50
2023-02-08T11:47:49.869Z,58.93
2023-02-08T11:50:26.532Z,46.93
2023-02-08T11:52:56.861Z,62.73
2023-02-08T11:55:26.319Z,62.13
2023-02-08T11:57:55.257Z,45.73
2023-02-08T12:00:22.695Z,60.80
2023-02-08T12:02:46.821Z,52.23
2023-02-08T12:05:16.166Z,51.30
2023-02-08T12:07:59.533Z,59.90
2023-02-08T12:11:02.143Z,62.37
2023-02-08T12:13:51.173Z,60.27
2023-02-08T12:16:36.722Z,61.73
2023-02-08T12:19:24.267Z,58.33
2023-02-08T12:21:51.733Z,65.37
2023-02-08T12:24:24.192Z,55.90
2023-02-08T12:27:11.927Z,59.53
2023-02-08T12:29:48.148Z,59.13
2023-02-08T12:32:37.723Z,60.67
2023-02-08T12:35:41.681Z,60.93
2023-02-08T12:38:36.191Z,55.93
2023-02-08T12:41:10.961Z,55.77
2023-02-08T12:43:46.161Z,60.13
2023-02-08T12:46:34.670Z,56.00
2023-02-08T12:49:26.343Z,56.33
2023-02-08T12:52:03.232Z,50.03
2023-02-08T12:54:35.027Z,58.47
2023-02-08T12:57:02.845Z,54.70
2023-02-08T12:59:33.444Z,56.97
2023-02-08T13:02:03.701Z,53.90
2023-02-08T13:04:34.550Z,57.30
2023-02-08T13:07:03.178Z,65.40
2023-02-08T13:09:42.038Z,62.63
2023-02-08T13:12:16.179Z,64.17
2023-02-08T13:14:44.128Z,58.27
2023-02-08T13:17:17.790Z,56.17
2023-02-08T13:20:00.123Z,58.70
2023-02-08T13:22:24.861Z,52.33
2023-02-08T13:24:55.275Z,63.33
2023-02-08T13:27:26.489Z,64.80
2023-02-08T13:29:53.206Z,64.27
2023-02-08T13:32:22.648Z,61.30
2023-02-08T13:34:51.000Z,62.33
2023-02-08T13:37:26.200Z,62.00
2023-02-08T13:40:00.549Z,55.53
2023-02-08T13:42:34.218Z,62.63
2023-02-08T13:44:59.808Z,64.90
2023-02-08T13:47:31.238Z,68.63
2023-02-08T13:50:00.153Z,59.30
2023-02-08T13:52:53.157Z,65.00
2023-02-08T13:55:46.127Z,62.23
2023-02-08T13:58:40.658Z,62.80
2023-02-08T14:01:17.538Z,66.30
2023-02-08T14:03:41.183Z,63.23
2023-02-08T14:06:07.784Z,57.77
2023-02-08T14:08:36.350Z,59.97
2023-02-08T14:11:13.480Z,66.63
2023-02-08T14:13:47.890Z,40.97
2023-02-08T14:16:30.962Z,60.50
2023-02-08T14:18:56.526Z,46.33
2023-02-08T14:21:39.230Z,57.03
2023-02-08T14:24:06.993Z,57.03
2023-02-08T14:26:31.335Z,58.97
2023-02-08T14:28:58.912Z,58.13
2023-02-08T14:31:24.110Z,61.07
2023-02-08T14:33:55.248Z,58.43
2023-02-08T14:36:30.455Z,61.87
2023-02-08T14:39:26.309Z,59.37
2023-02-08T14:42:00.182Z,54.00
2023-02-08T14:45:06.280Z,59.50
2023-02-08T14:47:57.160Z,55.23
2023-02-08T14:50:26.356Z,59.03
2023-02-08T14:52:59.354Z,57.43
2023-02-08T14:55:27.684Z,57.03
2023-02-08T14:57:51.563Z,54.93
2023-02-08T15:00:25.584Z,57.03
2023-02-08T15:02:50.735Z,63.83
2023-02-08T15:05:25.252Z,62.13
2023-02-08T15:07:53.328Z,58.33
2023-02-08T15:10:19.009Z,59.97
2023-02-08T15:12:47.533Z,62.73
2023-02-08T15:15:27.449Z,59.03
2023-02-08T15:17:52.929Z,67.53
2023-02-08T15:20:21.519Z,63.37
2023-02-08T15:22:45.215Z,64.70
2023-02-08T15:25:28.204Z,63.60
2023-02-08T15:27:54.556Z,61.50
2023-02-08T15:30:33.447Z,57.10
2023-02-08T15:32:58.103Z,71.43
2023-02-08T15:35:24.164Z,64.20
2023-02-08T15:37:48.708Z,64.23
2023-02-08T15:40:24.815Z,63.37
2023-02-08T15:42:48.418Z,67.23
2023-02-08T15:45:30.808Z,65.40
2023-02-08T15:47:55.600Z,58.03
2023-02-08T15:50:22.581Z,63.13
2023-02-08T15:52:47.313Z,59.33
2023-02-08T15:55:17.032Z,64.03
2023-02-08T15:57:46.278Z,66.37
2023-02-08T16:00:18.355Z,67.80
2023-02-08T16:02:43.674Z,64.27
2023-02-08T16:05:20.874Z,57.93
2023-02-08T16:07:47.187Z,60.43
2023-02-08T16:10:25.840Z,64.73
2023-02-08T16:12:55.063Z,59.67
2023-02-08T16:15:41.209Z,57.63
2023-02-08T16:18:06.726Z,56.63
2023-02-08T16:20:33.989Z,61.27
2023-02-08T16:23:00.887Z,59.93
2023-02-08T16:25:31.694Z,63.73
2023-02-08T16:27:55.390Z,64.03
2023-02-08T16:30:22.301Z,60.37
2023-02-08T16:32:46.831Z,59.07
2023-02-08T16:35:16.604Z,64.40
2023-02-08T16:37:40.425Z,64.77
2023-02-08T16:40:08.798Z,65.13
2023-02-08T16:42:36.738Z,58.60
2023-02-08T16:45:25.682Z,63.37
2023-02-08T16:47:53.127Z,58.97
2023-02-08T16:50:20.273Z,60.90
2023-02-08T16:52:44.094Z,55.20
2023-02-08T16:55:09.452Z,59.57
2023-02-08T16:57:45.366Z,56.90
2023-02-08T17:00:21.836Z,58.97
2023-02-08T17:02:45.581Z,62.70
2023-02-08T17:05:09.368Z,59.27
2023-02-08T17:07:34.635Z,60.00
2023-02-08T17:09:58.258Z,49.77
2023-02-08T17:12:23.123Z,58.20
2023-02-08T17:14:46.827Z,57.97
2023-02-08T17:17:11.548Z,54.87
2023-02-08T17:19:35.158Z,62.13
2023-02-08T17:21:58.808Z,51.77
2023-02-08T17:24:24.197Z,57.53
2023-02-08T17:26:48.078Z,61.50
2023-02-08T17:29:13.150Z,60.73
2023-02-08T17:31:36.941Z,61.23
2023-02-08T17:34:04.456Z,56.43
2023-02-08T17:36:28.076Z,59.93
2023-02-08T17:38:52.227Z,61.03
2023-02-08T17:41:19.428Z,62.00
2023-02-08T17:43:43.168Z,55.77
2023-02-08T17:46:11.254Z,61.10
2023-02-08T17:48:34.884Z,55.53
2023-02-08T17:50:58.511Z,61.37
2023-02-08T17:53:22.227Z,60.10
2023-02-08T17:55:47.162Z,109.80
2023-02-08T17:58:12.374Z,64.00
2023-02-08T18:00:36.071Z,67.60
2023-02-08T18:03:01.130Z,82.70
2023-02-08T18:05:28.718Z,69.03
2023-02-08T18:07:53.028Z,94.67
2023-02-08T18:10:16.902Z,71.77
2023-02-08T18:12:40.583Z,70.83
2023-02-08T18:15:07.084Z,62.63
2023-02-08T18:17:30.654Z,89.33
2023-02-08T18:19:54.293Z,58.33
2023-02-08T18:22:18.928Z,58.37
2023-02-08T18:24:42.518Z,60.00
2023-02-08T18:27:06.124Z,55.27
2023-02-08T18:29:30.425Z,58.63
2023-02-08T18:31:55.688Z,62.47
2023-02-08T18:34:19.549Z,60.33
2023-02-08T18:36:43.206Z,60.60
2023-02-08T18:39:06.820Z,54.43
2023-02-08T18:41:31.928Z,77.83
2023-02-08T18:43:57.270Z,58.87
2023-02-08T18:46:23.870Z,59.40
2023-02-08T18:48:50.572Z,57.80
2023-02-08T18:51:18.793Z,91.60
2023-02-08T18:53:43.695Z,99.00
2023-02-08T18:56:10.374Z,52.37
2023-02-08T18:58:34.341Z,55.50
2023-02-08T19:01:07.604Z,52.60
2023-02-08T19:03:32.073Z,56.40
2023-02-08T19:05:57.921Z,51.90
2023-02-08T19:08:22.723Z,64.10
2023-02-08T19:10:46.462Z,48.60
2023-02-08T19:13:10.328Z,48.70
2023-02-08T19:15:36.373Z,48.30
2023-02-08T19:18:00.000Z,59.60
2023-02-08T19:20:23.676Z,65.77
2023-02-08T19:22:48.843Z,56.70
2023-02-08T19:25:12.517Z,76.00
2023-02-08T19:27:37.111Z,53.57
2023-02-08T19:30:00.737Z,53.90
2023-02-08T19:32:24.892Z,52.93
2023-02-08T19:34:48.494Z,53.33
2023-02-08T19:37:12.138Z,50.93
2023-02-08T19:39:37.149Z,52.17
2023-02-08T19:42:00.900Z,50.87
2023-02-08T19:44:24.712Z,52.13
2023-02-08T19:46:50.447Z,52.17
2023-02-08T19:49:15.219Z,70.00
2023-02-08T19:51:39.027Z,67.03
2023-02-08T19:54:06.751Z,85.00
2023-02-08T19:56:33.794Z,63.03
2023-02-08T19:58:57.409Z,51.17
2023-02-08T20:01:23.976Z,53.57
2023-02-08T20:03:48.477Z,68.00
2023-02-08T20:06:19.146Z,59.03
2023-02-08T20:08:43.172Z,60.23
2023-02-08T20:11:06.931Z,52.83
2023-02-08T20:13:32.130Z,47.77
2023-02-08T20:15:59.810Z,54.50
2023-02-08T20:18:23.613Z,49.57
2023-02-08T20:20:48.166Z,51.23
2023-02-08T20:23:22.413Z,57.03
2023-02-08T20:25:46.706Z,56.07
2023-02-08T20:28:11.167Z,49.03
2023-02-08T20:30:36.440Z,51.20
2023-02-08T20:33:01.056Z,47.07
2023-02-08T20:35:24.985Z,47.77
2023-02-08T20:37:49.096Z,49.47
2023-02-08T20:40:16.721Z,52.23
2023-02-08T20:42:40.298Z,49.30
2023-02-08T20:45:04.745Z,48.93
2023-02-08T20:47:31.923Z,50.10
2023-02-08T20:49:59.633Z,44.47
2023-02-08T20:52:24.764Z,48.43
2023-02-08T20:54:48.416Z,49.07
2023-02-08T20:57:14.345Z,47.70
2023-02-08T20:59:39.061Z,47.77
2023-02-08T21:02:02.660Z,46.50
2023-02-08T21:04:28.364Z,48.50
2023-02-08T21:06:53.130Z,42.13
2023-02-08T21:09:20.103Z,48.80
2023-02-08T21:11:44.203Z,46.23
2023-02-08T21:14:09.574Z,51.53
2023-02-08T21:16:33.570Z,55.13
2023-02-08T21:18:58.368Z,47.20
2023-02-08T21:21:23.484Z,28.07
2023-02-08T21:23:48.703Z,34.97
2023-02-08T21:26:14.857Z,41.27
2023-02-08T21:28:39.422Z,37.80
2023-02-08T21:31:07.513Z,36.97
2023-02-08T21:33:31.760Z,41.53
2023-02-08T21:35:56.306Z,42.53
2023-02-08T21:38:21.675Z,38.63
2023-02-08T21:40:45.764Z,38.03
2023-02-08T21:43:10.302Z,41.67
2023-02-08T21:45:35.811Z,37.83
2023-02-08T21:47:59.969Z,42.53
2023-02-08T21:50:41.021Z,43.67
2023-02-08T21:53:22.547Z,22.10
2023-02-08T21:55:49.017Z,45.00
2023-02-08T21:58:12.627Z,33.63
2023-02-08T22:00:36.325Z,26.13
2023-02-08T22:02:59.993Z,43.87
2023-02-08T22:05:23.649Z,41.70
2023-02-08T22:07:51.036Z,40.97
2023-02-08T22:10:17.733Z,42.63
2023-02-08T22:12:43.234Z,36.77
2023-02-08T22:15:07.914Z,44.93
2023-02-08T22:17:31.527Z,41.50
2023-02-08T22:19:55.264Z,40.97
2023-02-08T22:22:18.894Z,39.93
2023-02-08T22:24:43.052Z,43.73
2023-02-08T22:27:06.939Z,42.00
2023-02-08T22:29:32.017Z,37.03
2023-02-08T22:31:55.829Z,40.47
2023-02-08T22:34:19.938Z,42.63
2023-02-08T22:36:43.726Z,45.17
2023-02-08T22:39:07.396Z,43.73
2023-02-08T22:41:31.113Z,44.67
2023-02-08T22:43:55.393Z,46.17
2023-02-08T22:46:20.438Z,46.90
2023-02-08T22:48:44.336Z,45.67
2023-02-08T22:51:09.519Z,42.17
2023-02-08T22:53:33.338Z,45.17
2023-02-08T22:55:58.195Z,47.17
2023-02-08T22:58:22.459Z,44.40
2023-02-08T23:00:47.574Z,48.93
2023-02-08T23:03:12.893Z,46.13
2023-02-08T23:05:36.690Z,48.33
2023-02-08T23:08:00.338Z,47.37
2023-02-08T23:10:23.944Z,41.37
2023-02-08T23:12:47.646Z,37.03
2023-02-08T23:15:12.795Z,48.80
2023-02-08T23:17:38.106Z,40.60
2023-02-08T23:20:03.137Z,44.17
2023-02-08T23:22:26.934Z,37.43
2023-02-08T23:24:50.603Z,42.80
2023-02-08T23:27:14.319Z,46.87
2023-02-08T23:29:38.353Z,47.80
2023-02-08T23:32:02.151Z,45.33
2023-02-08T23:34:25.894Z,44.20
2023-02-08T23:36:51.035Z,46.87
2023-02-08T23:39:14.688Z,45.47
2023-02-08T23:41:38.456Z,49.83
2023-02-08T23:44:02.087Z,45.67
2023-02-08T23:46:28.204Z,44.93
2023-02-08T23:48:52.416Z,42.17
2023-02-08T23:51:17.221Z,47.67
2023-02-08T23:53:42.625Z,44.43
2023-02-08T23:56:12.660Z,44.70
2023-02-08T23:58:37.598Z,47.10
